createdAt,value
2018-05-08T00:00:50.572Z,0
2018-05-08T00:02:00.591Z,0
2018-05-08T00:03:10.353Z,0
2018-05-08T00:04:20.385Z,0
2018-05-08T00:05:30.408Z,0
2018-05-08T00:06:40.157Z,0
2018-05-08T00:07:50.156Z,0
2018-05-08T00:09:00.263Z,0
2018-05-08T00:10:10.017Z,0
2018-05-08T00:11:20.019Z,0
2018-05-08T00:12:29.777Z,0
2018-05-08T00:13:39.866Z,0
2018-05-08T00:14:49.625Z,0
2018-05-08T00:15:59.679Z,0
2018-05-08T00:17:09.712Z,0
2018-05-08T00:18:19.721Z,0
2018-05-08T00:19:29.759Z,0
2018-05-08T00:20:39.521Z,0
2018-05-08T00:21:49.573Z,0
2018-05-08T00:22:59.580Z,0
2018-05-08T00:24:09.343Z,0
2018-05-08T00:25:19.103Z,0
2018-05-08T00:26:28.865Z,0
2018-05-08T00:27:38.881Z,0
2018-05-08T00:28:48.875Z,0
2018-05-08T00:29:58.982Z,0
2018-05-08T00:31:08.996Z,0
2018-05-08T00:32:18.997Z,0
2018-05-08T00:33:28.804Z,0
2018-05-08T00:34:38.820Z,0
2018-05-08T00:35:48.839Z,0
2018-05-08T00:36:58.854Z,0
2018-05-08T00:38:08.591Z,0
2018-05-08T00:39:18.598Z,0
2018-05-08T00:40:28.618Z,0
2018-05-08T00:41:38.639Z,0
2018-05-08T00:42:48.655Z,0
2018-05-08T00:43:58.684Z,0
2018-05-08T00:45:08.725Z,0
2018-05-08T00:46:18.486Z,0
2018-05-08T00:47:28.528Z,0
2018-05-08T00:48:38.533Z,0
2018-05-08T00:49:48.297Z,0
2018-05-08T00:50:58.052Z,0
2018-05-08T00:52:08.044Z,0
2018-05-08T00:53:18.049Z,0
2018-05-08T00:54:28.070Z,0
2018-05-08T00:55:38.080Z,0
2018-05-08T00:56:48.138Z,0
2018-05-08T00:57:58.165Z,0
2018-05-08T00:59:08.176Z,0
2018-05-08T01:00:18.175Z,0
2018-05-08T01:01:28.223Z,0
2018-05-08T01:02:38.232Z,0
2018-05-08T01:03:48.025Z,0
2018-05-08T01:04:58.301Z,0
2018-05-08T01:06:08.054Z,0
2018-05-08T01:07:18.125Z,0
2018-05-08T01:08:28.146Z,0
2018-05-08T01:09:38.176Z,0
2018-05-08T01:10:48.190Z,0
2018-05-08T01:11:57.947Z,0
2018-05-08T01:13:07.702Z,0
2018-05-08T01:14:17.718Z,0
2018-05-08T01:15:27.222Z,0
2018-05-08T01:16:36.999Z,0
2018-05-08T01:17:47.013Z,0
2018-05-08T01:18:56.864Z,0
2018-05-08T01:20:06.884Z,0
2018-05-08T01:21:16.907Z,0
2018-05-08T01:22:26.911Z,0
2018-05-08T01:23:36.647Z,0
2018-05-08T01:24:46.403Z,0
2018-05-08T01:25:56.208Z,0
2018-05-08T01:27:06.302Z,0
2018-05-08T01:28:16.380Z,0
2018-05-08T01:29:26.464Z,0
2018-05-08T01:30:36.538Z,0
2018-05-08T01:31:46.876Z,0
2018-05-08T01:32:56.974Z,0
2018-05-08T01:34:07.030Z,0
2018-05-08T01:35:16.905Z,0
2018-05-08T01:36:26.718Z,0
2018-05-08T01:37:36.537Z,0
2018-05-08T01:38:46.350Z,0
2018-05-08T01:39:56.443Z,0
2018-05-08T01:41:06.525Z,0
2018-05-08T01:42:16.605Z,0
2018-05-08T01:43:26.929Z,0
2018-05-08T01:44:37.015Z,0
2018-05-08T01:45:47.206Z,0
2018-05-08T01:46:57.040Z,0
2018-05-08T01:48:07.102Z,0
2018-05-08T01:49:17.173Z,0
2018-05-08T01:50:26.726Z,0
2018-05-08T01:51:36.551Z,0
2018-05-08T01:52:46.631Z,0
2018-05-08T01:53:56.448Z,0
2018-05-08T01:55:06.259Z,0
2018-05-08T01:56:16.354Z,0
2018-05-08T01:57:26.423Z,0
2018-05-08T01:58:36.485Z,0
2018-05-08T01:59:46.563Z,0
2018-05-08T02:00:56.633Z,0
2018-05-08T02:02:06.711Z,0
2018-05-08T02:03:16.791Z,0
2018-05-08T02:04:26.855Z,0
2018-05-08T02:05:36.951Z,0
2018-05-08T02:06:47.082Z,0
2018-05-08T02:07:56.894Z,0
2018-05-08T02:09:06.986Z,0
2018-05-08T02:10:17.062Z,0
2018-05-08T02:11:27.161Z,0
2018-05-08T02:12:37.237Z,0
2018-05-08T02:13:47.324Z,0
2018-05-08T02:14:57.157Z,0
2018-05-08T02:16:07.228Z,0
2018-05-08T02:17:17.323Z,0
2018-05-08T02:18:26.865Z,0
2018-05-08T02:19:36.697Z,0
2018-05-08T02:20:46.518Z,0
2018-05-08T02:21:56.592Z,0
2018-05-08T02:23:06.662Z,0
2018-05-08T02:24:16.735Z,0
2018-05-08T02:25:26.810Z,0
2018-05-08T02:26:36.889Z,0
2018-05-08T02:27:46.966Z,0
2018-05-08T02:28:57.042Z,0
2018-05-08T02:30:06.933Z,0
2018-05-08T02:31:17.109Z,0
2018-05-08T02:32:27.214Z,0
2018-05-08T02:33:37.035Z,0
2018-05-08T02:34:46.846Z,0
2018-05-08T02:35:56.960Z,0
2018-05-08T02:37:07.038Z,0
2018-05-08T02:38:16.855Z,0
2018-05-08T02:39:26.943Z,0
2018-05-08T02:40:36.238Z,0
2018-05-08T02:41:46.327Z,0
2018-05-08T02:42:56.142Z,0
2018-05-08T02:44:05.702Z,0
2018-05-08T02:45:15.783Z,0
2018-05-08T02:46:25.926Z,0
2018-05-08T02:47:35.981Z,0
2018-05-08T02:48:46.071Z,0
2018-05-08T02:49:56.167Z,0
2018-05-08T02:51:05.989Z,4
2018-05-08T02:52:16.111Z,4
2018-05-08T02:53:26.197Z,0
2018-05-08T02:54:36.293Z,0
2018-05-08T02:55:46.112Z,4
2018-05-08T02:56:55.956Z,4
2018-05-08T02:58:06.035Z,4
2018-05-08T02:59:15.856Z,4
2018-05-08T03:00:25.938Z,4
2018-05-08T03:01:35.999Z,8
2018-05-08T03:34:10.025Z,268
2018-05-08T03:35:20.095Z,288
2018-05-08T03:36:29.632Z,312
2018-05-08T03:37:39.436Z,336
2018-05-08T03:38:49.506Z,364
2018-05-08T03:39:59.636Z,388
2018-05-08T03:41:09.740Z,416
2018-05-08T03:42:19.824Z,444
2018-05-08T03:43:29.884Z,476
2018-05-08T03:44:39.949Z,508
2018-05-08T03:45:50.028Z,536
2018-05-08T03:47:00.122Z,572
2018-05-08T03:48:10.226Z,600
2018-05-08T03:49:20.355Z,632
2018-05-08T03:50:30.162Z,664
2018-05-08T03:51:39.992Z,700
2018-05-08T03:52:49.805Z,732
2018-05-08T03:53:59.621Z,760
2018-05-08T03:55:09.691Z,792
2018-05-08T03:56:19.765Z,828
2018-05-08T03:57:30.241Z,860
2018-05-08T03:58:40.056Z,892
2018-05-08T03:59:50.129Z,928
2018-05-08T04:01:00.196Z,956
2018-05-08T04:02:10.271Z,988
2018-05-08T04:03:20.413Z,1020
2018-05-08T04:04:30.541Z,1056
2018-05-08T04:05:40.087Z,1088
2018-05-08T04:06:49.655Z,1124
2018-05-08T04:07:59.463Z,1160
2018-05-08T04:09:09.269Z,1196
2018-05-08T04:10:18.812Z,1228
2018-05-08T04:11:28.618Z,1268
2018-05-08T04:12:38.682Z,1300
2018-05-08T04:13:48.495Z,1340
2018-05-08T04:14:58.323Z,1380
2018-05-08T04:16:08.459Z,1416
2018-05-08T04:17:18.536Z,1460
2018-05-08T04:18:28.626Z,1508
2018-05-08T04:19:38.448Z,1852
2018-05-08T04:20:48.008Z,5380
2018-05-08T04:21:57.825Z,8600
2018-05-08T04:23:07.901Z,8156
2018-05-08T04:24:17.725Z,6044
2018-05-08T04:25:27.797Z,6420
2018-05-08T04:26:37.924Z,3988
2018-05-08T04:27:48.011Z,2088
2018-05-08T04:28:57.567Z,1980
2018-05-08T04:30:07.669Z,2032
2018-05-08T04:31:17.745Z,2032
2018-05-08T04:32:27.847Z,2156
2018-05-08T04:33:37.486Z,2856
2018-05-08T04:34:47.312Z,2708
2018-05-08T04:35:57.123Z,3712
2018-05-08T04:37:07.194Z,4388
2018-05-08T04:38:17.001Z,6272
2018-05-08T04:39:26.813Z,6940
2018-05-08T04:40:36.904Z,5548
2018-05-08T04:41:46.992Z,7216
2018-05-08T04:42:57.061Z,9412
2018-05-08T04:44:07.147Z,9980
2018-05-08T04:45:17.232Z,11608
2018-05-08T04:46:27.128Z,11812
2018-05-08T04:47:37.328Z,11768
2018-05-08T04:48:47.397Z,11772
2018-05-08T04:49:57.477Z,11612
2018-05-08T04:51:07.555Z,11704
2018-05-08T04:52:17.383Z,12008
2018-05-08T04:53:27.480Z,11984
2018-05-08T04:54:37.556Z,11728
2018-05-08T04:55:47.482Z,11784
2018-05-08T04:56:57.392Z,12152
2018-05-08T04:58:07.476Z,12176
2018-05-08T04:59:17.548Z,12136
2018-05-08T05:00:27.389Z,12060
2018-05-08T05:01:37.482Z,12252
2018-05-08T05:02:48.046Z,12412
2018-05-08T05:03:58.142Z,12300
2018-05-08T05:05:07.967Z,12248
2018-05-08T05:06:18.047Z,12280
2018-05-08T05:07:28.118Z,12348
2018-05-08T05:08:38.197Z,12348
2018-05-08T05:09:48.268Z,12380
2018-05-08T05:10:58.354Z,12360
2018-05-08T05:12:08.016Z,12420
2018-05-08T05:13:17.827Z,11996
2018-05-08T05:14:27.909Z,12432
2018-05-08T05:15:37.987Z,12280
2018-05-08T05:16:48.393Z,12072
2018-05-08T05:17:58.231Z,11892
2018-05-08T05:19:08.417Z,12144
2018-05-08T05:20:17.972Z,12364
2018-05-08T05:21:28.049Z,12220
2018-05-08T05:22:37.858Z,12280
2018-05-08T05:23:47.954Z,6096
2018-05-08T05:24:57.509Z,5004
2018-05-08T05:26:07.072Z,2632
2018-05-08T05:27:17.152Z,3228
2018-05-08T05:28:27.237Z,4080
2018-05-08T05:29:37.056Z,5780
2018-05-08T05:30:47.144Z,11764
2018-05-08T05:31:57.242Z,12260
2018-05-08T05:33:07.065Z,11856
2018-05-08T05:34:17.159Z,11724
2018-05-08T05:35:26.721Z,6464
2018-05-08T05:36:36.812Z,3924
2018-05-08T05:37:46.885Z,4044
2018-05-08T05:38:56.706Z,3596
2018-05-08T05:40:06.772Z,3552
2018-05-08T05:41:16.594Z,3576
2018-05-08T05:42:26.461Z,3656
2018-05-08T05:43:36.547Z,4524
2018-05-08T05:44:46.642Z,4292
2018-05-08T05:45:56.477Z,5652
2018-05-08T05:47:06.566Z,4736
2018-05-08T05:48:16.656Z,5064
2018-05-08T05:49:26.741Z,9700
2018-05-08T05:50:36.567Z,4680
2018-05-08T05:51:46.643Z,3580
2018-05-08T05:52:56.447Z,4172
2018-05-08T05:54:06.316Z,3624
2018-05-08T05:55:16.134Z,7580
2018-05-08T05:56:26.219Z,6268
2018-05-08T05:57:36.324Z,4056
2018-05-08T05:58:46.134Z,3728
2018-05-08T05:59:56.200Z,3724
2018-05-08T06:01:06.344Z,3700
2018-05-08T06:02:16.437Z,3724
2018-05-08T06:03:26.533Z,3720
2018-05-08T06:04:36.630Z,3756
2018-05-08T06:05:46.716Z,3744
2018-05-08T06:06:56.789Z,3788
2018-05-08T06:08:06.888Z,4184
2018-05-08T06:09:16.971Z,5200
2018-05-08T06:10:27.051Z,5500
2018-05-08T06:11:37.130Z,5352
2018-05-08T06:12:47.221Z,4948
2018-05-08T06:13:57.318Z,4500
2018-05-08T06:15:07.413Z,4940
2018-05-08T06:16:17.496Z,4856
2018-05-08T06:17:27.401Z,4776
2018-05-08T06:18:37.488Z,4744
2018-05-08T06:19:47.050Z,4700
2018-05-08T06:20:56.858Z,4652
2018-05-08T06:22:06.924Z,4592
2018-05-08T06:23:17.071Z,4560
2018-05-08T06:24:26.893Z,4520
2018-05-08T06:25:36.994Z,4480
2018-05-08T06:26:47.126Z,4420
2018-05-08T06:27:57.201Z,4332
2018-05-08T06:29:07.065Z,4020
2018-05-08T06:30:17.147Z,3820
2018-05-08T06:31:27.219Z,4072
2018-05-08T06:32:37.311Z,4264
2018-05-08T06:33:47.136Z,4292
2018-05-08T06:34:56.955Z,4300
2018-05-08T06:36:06.772Z,4264
2018-05-08T06:37:16.857Z,4136
2018-05-08T06:38:26.675Z,4036
2018-05-08T06:39:36.760Z,4040
2018-05-08T06:40:46.547Z,4116
2018-05-08T06:41:56.355Z,4384
2018-05-08T06:43:06.466Z,4652
2018-05-08T06:44:16.376Z,4740
2018-05-08T06:45:26.180Z,4656
2018-05-08T06:46:35.866Z,4416
2018-05-08T06:47:46.000Z,4356
2018-05-08T06:48:56.089Z,4368
2018-05-08T06:50:05.937Z,4136
2018-05-08T06:51:16.024Z,3432
2018-05-08T06:52:26.100Z,3376
2018-05-08T06:53:36.193Z,3700
2018-05-08T06:54:46.260Z,3368
2018-05-08T06:55:55.902Z,3380
2018-05-08T06:57:05.977Z,3540
2018-05-08T06:58:16.182Z,3936
2018-05-08T06:59:26.261Z,4984
2018-05-08T07:00:36.345Z,5072
2018-05-08T07:01:46.503Z,5212
2018-05-08T07:02:56.596Z,4156
2018-05-08T07:04:06.704Z,4056
2018-05-08T07:05:16.787Z,4080
2018-05-08T07:06:26.876Z,4052
2018-05-08T07:07:36.688Z,4208
2018-05-08T07:08:46.767Z,4396
2018-05-08T07:09:56.854Z,4556
2018-05-08T07:11:06.680Z,4708
2018-05-08T07:12:16.771Z,5036
2018-05-08T07:13:26.841Z,4564
2018-05-08T07:14:36.662Z,4664
2018-05-08T07:15:47.208Z,6300
2018-05-08T07:16:57.546Z,6284
2018-05-08T07:18:07.822Z,4772
2018-05-08T07:19:17.650Z,4844
2018-05-08T07:20:27.727Z,5072
2018-05-08T07:21:37.544Z,4948
2018-05-08T07:22:47.376Z,5644
2018-05-08T07:23:57.653Z,5476
2018-05-08T07:25:07.499Z,5852
2018-05-08T07:26:17.597Z,6256
2018-05-08T07:27:26.896Z,6580
2018-05-08T07:28:36.963Z,7660
2018-05-08T07:29:46.811Z,8748
2018-05-08T07:30:56.723Z,8696
2018-05-08T07:32:06.839Z,7800
2018-05-08T07:33:16.941Z,7608
2018-05-08T07:34:27.050Z,6900
2018-05-08T07:35:36.895Z,6640
2018-05-08T07:36:46.983Z,6348
2018-05-08T07:37:56.797Z,6144
2018-05-08T07:39:06.347Z,6076
2018-05-08T07:40:16.157Z,6224
2018-05-08T07:41:26.230Z,7752
2018-05-08T07:42:36.311Z,7996
2018-05-08T07:43:46.142Z,6624
2018-05-08T07:44:56.234Z,7168
2018-05-08T07:46:06.319Z,6228
2018-05-08T07:47:16.404Z,6324
2018-05-08T07:48:26.502Z,6376
2018-05-08T07:49:36.334Z,6988
2018-05-08T07:50:46.531Z,6460
2018-05-08T07:51:56.875Z,6252
2018-05-08T07:53:06.705Z,5788
2018-05-08T07:54:16.812Z,5612
2018-05-08T07:55:26.903Z,5532
2018-05-08T07:56:36.985Z,5496
2018-05-08T07:57:47.322Z,5536
2018-05-08T07:58:57.421Z,5652
2018-05-08T08:00:07.261Z,5756
2018-05-08T08:01:17.096Z,5896
2018-05-08T08:02:27.187Z,5580
2018-05-08T08:03:37.308Z,5404
2018-05-08T08:04:47.424Z,6200
2018-05-08T08:05:57.507Z,5328
2018-05-08T08:07:07.606Z,5244
2018-05-08T08:08:17.447Z,4956
2018-05-08T08:09:27.305Z,7244
2018-05-08T08:10:37.376Z,5052
2018-05-08T08:11:47.564Z,5372
2018-05-08T08:12:57.648Z,5952
2018-05-08T08:14:07.813Z,5180
2018-05-08T08:15:17.899Z,5412
2018-05-08T08:16:27.718Z,5724
2018-05-08T08:17:37.811Z,5956
2018-05-08T08:18:47.887Z,6112
2018-05-08T08:19:58.020Z,6044
2018-05-08T08:21:08.083Z,5996
2018-05-08T08:22:17.913Z,5924
2018-05-08T08:23:28.008Z,5788
2018-05-08T08:24:38.122Z,5564
2018-05-08T08:25:48.218Z,5312
2018-05-08T08:26:58.041Z,5064
2018-05-08T08:28:08.140Z,4664
2018-05-08T08:29:18.225Z,4348
2018-05-08T08:30:28.334Z,4156
2018-05-08T08:31:38.159Z,4092
2018-05-08T08:32:48.275Z,4104
2018-05-08T08:33:58.440Z,4128
2018-05-08T08:35:08.301Z,4072
2018-05-08T08:36:18.391Z,3956
2018-05-08T08:37:27.999Z,3864
2018-05-08T08:38:38.181Z,3840
2018-05-08T08:39:48.349Z,3868
2018-05-08T08:40:58.537Z,3900
2018-05-08T08:42:08.647Z,3940
2018-05-08T08:43:18.536Z,3948
2018-05-08T08:44:28.372Z,3936
2018-05-08T08:45:38.450Z,3956
2018-05-08T08:46:48.535Z,3944
2018-05-08T08:47:58.841Z,3800
2018-05-08T08:49:08.780Z,3636
2018-05-08T08:50:18.909Z,3476
2018-05-08T08:51:29.003Z,3400
2018-05-08T08:52:39.268Z,3388
2018-05-08T08:53:49.361Z,3440
2018-05-08T08:54:59.191Z,3668
2018-05-08T08:56:09.300Z,3836
2018-05-08T08:57:19.131Z,3940
2018-05-08T08:58:28.687Z,3952
2018-05-08T08:59:38.507Z,3940
2018-05-08T09:00:48.118Z,3904
2018-05-08T09:01:58.218Z,3896
2018-05-08T09:03:08.305Z,3940
2018-05-08T09:04:18.409Z,4016
2018-05-08T09:05:28.510Z,4072
2018-05-08T09:06:38.607Z,4084
2018-05-08T09:07:48.695Z,4168
2018-05-08T09:08:58.779Z,4404
2018-05-08T09:10:08.924Z,4624
2018-05-08T09:11:18.848Z,4760
2018-05-08T09:12:29.094Z,4804
2018-05-08T09:13:39.217Z,4720
2018-05-08T09:14:49.072Z,4596
2018-05-08T09:15:58.638Z,4496
2018-05-08T09:17:08.735Z,4396
2018-05-08T09:18:18.829Z,4300
2018-05-08T09:19:28.898Z,4192
2018-05-08T09:20:39.087Z,4112
2018-05-08T09:21:49.168Z,4104
2018-05-08T09:22:59.270Z,4164
2018-05-08T09:24:09.370Z,4256
2018-05-08T09:25:19.454Z,4404
2018-05-08T09:26:29.376Z,4632
2018-05-08T09:27:39.809Z,4808
2018-05-08T09:28:49.752Z,4976
2018-05-08T09:29:59.315Z,5140
2018-05-08T09:31:09.407Z,5276
2018-05-08T09:32:19.760Z,5416
2018-05-08T09:33:29.331Z,5532
2018-05-08T09:34:39.161Z,5692
2018-05-08T09:35:49.298Z,5816
2018-05-08T09:36:59.399Z,6272
2018-05-08T09:38:09.006Z,6592
2018-05-08T09:39:19.094Z,6228
2018-05-08T09:40:29.193Z,6468
2018-05-08T09:41:39.036Z,6444
2018-05-08T09:42:49.111Z,6632
2018-05-08T09:43:59.273Z,7832
2018-05-08T09:45:09.396Z,8976
2018-05-08T09:46:18.966Z,6632
2018-05-08T09:47:28.802Z,6744
2018-05-08T09:48:38.630Z,8140
2018-05-08T09:49:48.715Z,5356
2018-05-08T09:50:58.802Z,6572
2018-05-08T09:52:08.903Z,6572
2018-05-08T09:53:19.010Z,6276
2018-05-08T09:54:29.142Z,6308
2018-05-08T09:55:38.965Z,6172
2018-05-08T09:56:48.805Z,6036
2018-05-08T09:57:58.662Z,5996
2018-05-08T09:59:08.774Z,5980
2018-05-08T10:00:18.860Z,5992
2018-05-08T10:01:29.014Z,5976
2018-05-08T10:02:39.110Z,5968
2018-05-08T10:03:49.212Z,5964
2018-05-08T10:04:59.041Z,5968
2018-05-08T10:06:09.139Z,5968
2018-05-08T10:07:18.957Z,5980
2018-05-08T10:08:28.782Z,6008
2018-05-08T10:09:38.899Z,6016
2018-05-08T10:10:48.768Z,6024
2018-05-08T10:11:58.872Z,6040
2018-05-08T10:13:08.983Z,6024
2018-05-08T10:14:18.580Z,6024
2018-05-08T10:15:28.678Z,6048
2018-05-08T10:16:38.244Z,6080
2018-05-08T10:17:48.336Z,6064
2018-05-08T10:18:58.514Z,6080
2018-05-08T10:20:08.572Z,6116
2018-05-08T10:21:18.731Z,6176
2018-05-08T10:22:28.830Z,6204
2018-05-08T10:23:38.922Z,6276
2018-05-08T10:24:49.202Z,6284
2018-05-08T10:25:59.303Z,6260
2018-05-08T10:27:09.487Z,6268
2018-05-08T10:28:20.820Z,6344
2018-05-08T10:29:30.654Z,6404
2018-05-08T10:30:40.744Z,6468
2018-05-08T10:31:50.982Z,6568
2018-05-08T10:33:01.277Z,6632
2018-05-08T10:34:10.579Z,6748
2018-05-08T10:35:20.696Z,6872
2018-05-08T10:36:30.538Z,6944
2018-05-08T10:37:40.617Z,6980
2018-05-08T10:38:50.684Z,6992
2018-05-08T10:40:00.772Z,7076
2018-05-08T10:41:10.613Z,7100
2018-05-08T10:42:20.883Z,7384
2018-05-08T10:43:30.961Z,7628
2018-05-08T10:44:41.058Z,7840
2018-05-08T10:45:51.143Z,7992
2018-05-08T10:47:01.244Z,8188
2018-05-08T10:48:11.118Z,8112
2018-05-08T10:49:21.217Z,8464
2018-05-08T10:50:31.309Z,8528
2018-05-08T10:51:41.166Z,8588
2018-05-08T10:52:50.752Z,8548
2018-05-08T10:54:00.913Z,8528
2018-05-08T10:55:10.995Z,8532
2018-05-08T10:56:21.083Z,8632
2018-05-08T10:57:31.188Z,8716
2018-05-08T10:58:40.758Z,8748
2018-05-08T10:59:50.579Z,8796
2018-05-08T11:01:00.401Z,8800
2018-05-08T11:02:10.488Z,8800
2018-05-08T11:03:20.599Z,8780
2018-05-08T11:04:30.694Z,8812
2018-05-08T11:05:40.871Z,8844
2018-05-08T11:06:50.964Z,8768
2018-05-08T11:08:01.057Z,8596
2018-05-08T11:09:11.514Z,8572
2018-05-08T11:10:21.600Z,8504
2018-05-08T11:11:31.676Z,8548
2018-05-08T11:12:41.773Z,8588
2018-05-08T11:13:51.870Z,8620
2018-05-08T11:15:01.986Z,8732
2018-05-08T11:16:11.823Z,8832
2018-05-08T11:17:21.892Z,8784
2018-05-08T11:18:31.968Z,8672
2018-05-08T11:19:42.222Z,8756
2018-05-08T11:20:52.344Z,8452
2018-05-08T11:22:02.431Z,8264
2018-05-08T11:23:12.586Z,8008
2018-05-08T11:24:22.425Z,7792
2018-05-08T11:25:32.513Z,7656
2018-05-08T11:26:43.346Z,7752
2018-05-08T11:27:53.467Z,7904
2018-05-08T11:29:03.556Z,8168
2018-05-08T11:30:13.664Z,8408
2018-05-08T11:31:23.783Z,8648
2018-05-08T11:32:33.604Z,8784
2018-05-08T11:33:43.688Z,8892
2018-05-08T11:34:53.831Z,9008
2018-05-08T11:36:03.927Z,9028
2018-05-08T11:37:14.037Z,9036
2018-05-08T11:38:24.140Z,8952
2018-05-08T11:39:34.214Z,8820
2018-05-08T11:40:44.046Z,9004
2018-05-08T11:41:54.145Z,8996
2018-05-08T11:43:04.073Z,9036
2018-05-08T11:44:14.158Z,9140
2018-05-08T11:45:24.261Z,9180
2018-05-08T11:46:34.143Z,8068
2018-05-08T11:47:44.230Z,4732
2018-05-08T11:48:53.787Z,7640
2018-05-08T11:50:04.177Z,7436
2018-05-08T11:51:14.210Z,9644
2018-05-08T11:52:23.824Z,6540
2018-05-08T11:53:33.908Z,9748
2018-05-08T11:54:43.763Z,9784
2018-05-08T11:55:53.603Z,9832
2018-05-08T11:57:03.415Z,9732
2018-05-08T11:58:13.550Z,8168
2018-05-08T11:59:23.673Z,9468
2018-05-08T12:00:33.774Z,10040
2018-05-08T12:01:43.870Z,9860
2018-05-08T12:02:53.678Z,9668
2018-05-08T12:04:03.510Z,9440
2018-05-08T12:05:13.617Z,9068
2018-05-08T12:06:23.445Z,8768
2018-05-08T12:07:33.555Z,8612
2018-05-08T12:08:43.641Z,8616
2018-05-08T12:09:53.803Z,8564
2018-05-08T12:11:03.653Z,8520
2018-05-08T12:12:13.749Z,8748
2018-05-08T12:13:23.840Z,8884
2018-05-08T12:14:34.205Z,7308
2018-05-08T12:15:44.445Z,8688
2018-05-08T12:16:54.267Z,4264
2018-05-08T12:18:04.380Z,4156
2018-05-08T12:19:14.475Z,7524
2018-05-08T12:20:24.578Z,3760
2018-05-08T12:21:34.448Z,7644
2018-05-08T12:22:44.542Z,8348
2018-05-08T12:23:54.641Z,8172
2018-05-08T12:25:04.759Z,8072
2018-05-08T12:26:14.849Z,8108
2018-05-08T12:27:24.981Z,8012
2018-05-08T12:28:35.085Z,7924
2018-05-08T12:29:45.183Z,7968
2018-05-08T12:30:55.259Z,7944
2018-05-08T12:32:05.359Z,3492
2018-05-08T12:33:15.249Z,3332
2018-05-08T12:34:25.078Z,3360
2018-05-08T12:35:35.176Z,3760
2018-05-08T12:36:45.301Z,3596
2018-05-08T12:37:55.406Z,3408
2018-05-08T12:39:05.238Z,7732
2018-05-08T12:40:15.395Z,7700
2018-05-08T12:41:25.245Z,7728
2018-05-08T12:42:35.082Z,7848
2018-05-08T12:43:45.170Z,3924
2018-05-08T12:44:55.260Z,3844
2018-05-08T12:46:05.364Z,4812
2018-05-08T12:47:15.463Z,7588
2018-05-08T12:48:25.549Z,8084
2018-05-08T12:49:35.687Z,8364
2018-05-08T12:50:45.813Z,8696
2018-05-08T12:51:55.775Z,9036
2018-05-08T12:53:05.616Z,9372
2018-05-08T12:54:15.731Z,9568
2018-05-08T12:55:25.829Z,9640
2018-05-08T12:56:35.940Z,9528
2018-05-08T12:57:46.038Z,9396
2018-05-08T12:58:55.986Z,9236
2018-05-08T13:00:05.881Z,9216
2018-05-08T13:01:15.715Z,9292
2018-05-08T13:02:26.136Z,9516
2018-05-08T13:03:36.265Z,9652
2018-05-08T13:04:46.382Z,9704
2018-05-08T13:05:56.506Z,8152
2018-05-08T13:07:06.339Z,6092
2018-05-08T13:08:16.170Z,7396
2018-05-08T13:09:26.265Z,9168
2018-05-08T13:10:36.375Z,6460
2018-05-08T13:11:46.501Z,5408
2018-05-08T13:12:56.354Z,5384
2018-05-08T13:14:06.461Z,5544
2018-05-08T13:15:16.625Z,5756
2018-05-08T13:16:26.456Z,5920
2018-05-08T13:17:36.555Z,6112
2018-05-08T13:18:46.692Z,6256
2018-05-08T13:19:56.511Z,6280
2018-05-08T13:21:06.596Z,6236
2018-05-08T13:22:16.701Z,6324
2018-05-08T13:23:26.790Z,6948
2018-05-08T13:24:36.969Z,10504
2018-05-08T13:25:46.792Z,7388
2018-05-08T13:26:56.426Z,6744
2018-05-08T13:28:06.255Z,6528
2018-05-08T13:29:16.342Z,6528
2018-05-08T13:30:26.443Z,7728
2018-05-08T13:31:36.547Z,6600
2018-05-08T13:32:46.668Z,7760
2018-05-08T13:33:57.047Z,5556
2018-05-08T13:35:06.870Z,5680
2018-05-08T13:36:16.993Z,5516
2018-05-08T13:37:26.843Z,5408
2018-05-08T13:38:36.944Z,5276
2018-05-08T13:39:47.052Z,5236
2018-05-08T13:40:56.896Z,5080
2018-05-08T13:42:07.349Z,5104
2018-05-08T13:43:17.449Z,5188
2018-05-08T13:44:27.641Z,5344
2018-05-08T13:45:37.737Z,5308
2018-05-08T13:46:47.825Z,8072
2018-05-08T13:47:57.912Z,7396
2018-05-08T13:49:08.085Z,8640
2018-05-08T13:50:18.225Z,8612
2018-05-08T13:51:28.311Z,7396
2018-05-08T13:52:38.388Z,8648
2018-05-08T13:53:48.485Z,8156
2018-05-08T13:54:58.773Z,8860
2018-05-08T13:56:08.962Z,9060
2018-05-08T13:57:19.054Z,9148
2018-05-08T13:58:29.150Z,8096
2018-05-08T13:59:38.465Z,6532
2018-05-08T14:00:48.592Z,8108
2018-05-08T14:01:58.778Z,8956
2018-05-08T14:03:08.857Z,7712
2018-05-08T14:04:18.970Z,8900
2018-05-08T14:05:29.068Z,8932
2018-05-08T14:06:39.592Z,8680
2018-05-08T14:07:50.084Z,8272
2018-05-08T14:09:00.185Z,8040
2018-05-08T14:10:10.032Z,7628
2018-05-08T14:11:19.897Z,6516
2018-05-08T14:12:29.996Z,6992
2018-05-08T14:13:40.084Z,6744
2018-05-08T14:14:50.201Z,3864
2018-05-08T14:16:00.310Z,3416
2018-05-08T14:17:10.167Z,4356
2018-05-08T14:18:20.264Z,4780
2018-05-08T14:19:30.557Z,4872
2018-05-08T14:20:40.417Z,3976
2018-05-08T14:21:50.512Z,3052
2018-05-08T14:23:00.623Z,2948
2018-05-08T14:24:10.736Z,2804
2018-05-08T14:25:20.937Z,2700
2018-05-08T14:26:31.020Z,2624
2018-05-08T14:27:41.123Z,2532
2018-05-08T14:28:50.969Z,2468
2018-05-08T14:30:01.056Z,2440
2018-05-08T14:31:11.163Z,2444
2018-05-08T14:32:21.264Z,2460
2018-05-08T14:33:31.384Z,2408
2018-05-08T14:34:41.512Z,2308
2018-05-08T14:35:51.638Z,2108
2018-05-08T14:37:01.997Z,1952
2018-05-08T14:38:11.834Z,1804
2018-05-08T14:39:21.660Z,1728
2018-05-08T14:40:31.487Z,1740
2018-05-08T14:41:41.327Z,1780
2018-05-08T14:42:51.682Z,1848
2018-05-08T14:44:01.781Z,1896
2018-05-08T14:45:11.970Z,1948
2018-05-08T14:46:22.059Z,2016
2018-05-08T14:47:32.164Z,2112
2018-05-08T14:48:42.321Z,2192
2018-05-08T14:49:52.440Z,2300
2018-05-08T14:51:02.538Z,2424
2018-05-08T14:52:12.633Z,2600
2018-05-08T14:53:22.486Z,2764
2018-05-08T14:54:32.672Z,3272
2018-05-08T14:55:42.763Z,3880
2018-05-08T14:56:52.851Z,3164
2018-05-08T14:58:02.695Z,3228
2018-05-08T14:59:12.770Z,3256
2018-05-08T15:00:22.924Z,3256
2018-05-08T15:01:33.028Z,3212
2018-05-08T15:02:42.881Z,3236
2018-05-08T15:03:52.695Z,3384
2018-05-08T15:05:02.505Z,3504
2018-05-08T15:06:12.400Z,3976
2018-05-08T15:07:22.244Z,3704
2018-05-08T15:08:32.331Z,4240
2018-05-08T15:09:42.174Z,4440
2018-05-08T15:10:52.267Z,5236
2018-05-08T15:12:02.418Z,5380
2018-05-08T15:13:12.804Z,5432
2018-05-08T15:14:22.970Z,4556
2018-05-08T15:15:32.798Z,3940
2018-05-08T15:16:42.636Z,3812
2018-05-08T15:17:52.730Z,3780
2018-05-08T15:19:02.833Z,3836
2018-05-08T15:20:12.668Z,3868
2018-05-08T15:21:22.519Z,5616
2018-05-08T15:22:32.646Z,5772
2018-05-08T15:23:42.896Z,5920
2018-05-08T15:24:52.748Z,5448
2018-05-08T15:26:02.882Z,6296
2018-05-08T15:27:13.027Z,6352
2018-05-08T15:28:22.860Z,6424
2018-05-08T15:29:32.727Z,6512
2018-05-08T15:30:42.595Z,6600
2018-05-08T15:31:52.689Z,6668
2018-05-08T15:33:02.804Z,6672
2018-05-08T15:34:12.640Z,6548
2018-05-08T15:35:22.801Z,6380
2018-05-08T15:36:32.893Z,6184
2018-05-08T15:37:43.010Z,6024
2018-05-08T15:38:53.136Z,5948
2018-05-08T15:40:03.240Z,6088
2018-05-08T15:41:13.674Z,6240
2018-05-08T15:42:23.773Z,6168
2018-05-08T15:43:33.862Z,5892
2018-05-08T15:44:43.973Z,5644
2018-05-08T15:45:54.070Z,5276
2018-05-08T15:47:04.257Z,4900
2018-05-08T15:48:14.353Z,4580
2018-05-08T15:49:24.435Z,4272
2018-05-08T15:50:34.513Z,3636
2018-05-08T15:51:44.605Z,3372
2018-05-08T15:52:54.695Z,3304
2018-05-08T15:54:04.811Z,3316
2018-05-08T15:55:15.097Z,3304
2018-05-08T15:56:25.401Z,3276
2018-05-08T15:57:35.250Z,3064
2018-05-08T15:58:45.351Z,2804
2018-05-08T15:59:55.441Z,2404
2018-05-08T16:01:05.006Z,1932
2018-05-08T16:02:15.379Z,1572
2018-05-08T16:03:25.816Z,1320
2018-05-08T16:04:35.897Z,1132
2018-05-08T16:05:46.014Z,972
2018-05-08T16:06:56.126Z,832
2018-05-08T16:08:06.250Z,704
2018-05-08T16:09:16.088Z,608
2018-05-08T16:10:26.237Z,540
2018-05-08T16:11:36.279Z,500
2018-05-08T16:12:46.465Z,480
2018-05-08T16:13:56.553Z,452
2018-05-08T16:15:06.745Z,424
2018-05-08T16:16:16.580Z,388
2018-05-08T16:17:26.420Z,356
2018-05-08T16:18:36.513Z,324
2018-05-08T16:19:46.618Z,292
2018-05-08T16:20:56.621Z,260
2018-05-08T16:22:06.812Z,244